Lexington, Tennessee
Current Conditions -  °F | °C
As of 10:35 AM on Wednesday 26 Nov 2014 (Local Time) from KPVE Reporting Station
Clear Clear  
Wind Chill: 40°   Ceiling: Unl
Heat Index: 43°   Visibility: 10mi
Dew Point: 28°   Wind: 5mph
Humidity: 57%   Direction: NA
Pressure: 30.12"   Gusts: NA
Location:  35.65°N, 88.39°W
Report Text: KPVE 261635Z AUTO VRB04KT 10SM CLR 06/M02 A3012 RMK
Loading
Personal Weather Stations






























Interactive Weather Map New forecast layout! Learn more

10-Day Weather Forecast

Advertisements
Track Severe Weather on mobile